createdAt,value
2019-03-29T00:01:07.048Z,8.64
2019-03-29T00:03:35.027Z,8.69
2019-03-29T00:06:03.216Z,8.58
2019-03-29T00:08:31.160Z,8.59
2019-03-29T00:10:59.391Z,8.69
2019-03-29T00:13:27.003Z,8.73
2019-03-29T00:15:54.584Z,8.75
2019-03-29T00:18:22.246Z,8.83
2019-03-29T00:20:51.138Z,8.67
2019-03-29T00:23:18.827Z,8.61
2019-03-29T00:25:46.964Z,8.69
2019-03-29T00:28:14.527Z,8.73
2019-03-29T00:30:42.688Z,8.87
2019-03-29T00:33:10.414Z,8.71
2019-03-29T00:35:37.964Z,8.76
2019-03-29T00:38:06.114Z,8.67
2019-03-29T00:40:33.740Z,8.57
2019-03-29T00:43:01.499Z,8.47
2019-03-29T00:45:29.854Z,8.66
2019-03-29T00:47:57.471Z,8.28
2019-03-29T00:50:25.183Z,8.10
2019-03-29T00:52:53.307Z,8.05
2019-03-29T00:55:21.194Z,7.93
2019-03-29T00:57:48.778Z,7.80
2019-03-29T01:00:16.786Z,7.71
2019-03-29T01:02:45.399Z,7.75
2019-03-29T01:05:13.427Z,7.77
2019-03-29T01:07:41.211Z,7.76
2019-03-29T01:10:09.406Z,7.70
2019-03-29T01:12:36.997Z,7.68
2019-03-29T01:15:05.954Z,7.67
2019-03-29T01:17:33.675Z,7.62
2019-03-29T01:20:01.778Z,7.87
2019-03-29T01:22:29.475Z,7.97
2019-03-29T01:24:57.099Z,7.83
2019-03-29T01:27:25.236Z,7.65
2019-03-29T01:29:52.852Z,7.62
2019-03-29T01:32:21.605Z,7.73
2019-03-29T01:34:49.585Z,7.68
2019-03-29T01:37:17.289Z,7.56
2019-03-29T01:39:45.875Z,7.64
2019-03-29T01:42:14.090Z,7.61
2019-03-29T01:44:41.672Z,7.52
2019-03-29T01:47:09.318Z,7.38
2019-03-29T01:49:36.935Z,7.39
2019-03-29T01:52:06.470Z,7.52
2019-03-29T01:54:34.175Z,7.55
2019-03-29T01:57:01.740Z,7.58
2019-03-29T01:59:29.322Z,7.47
2019-03-29T02:01:56.977Z,7.47
2019-03-29T02:04:25.123Z,7.52
2019-03-29T02:06:52.691Z,7.50
2019-03-29T02:09:20.332Z,7.66
2019-03-29T02:11:48.478Z,7.67
2019-03-29T02:14:16.083Z,7.56
2019-03-29T02:16:43.831Z,7.68
2019-03-29T02:19:11.423Z,7.83
2019-03-29T02:21:39.239Z,7.99
2019-03-29T02:24:06.900Z,7.95
2019-03-29T02:26:34.917Z,7.64
2019-03-29T02:29:05.268Z,7.60
2019-03-29T02:31:33.233Z,7.42
2019-03-29T02:34:00.815Z,7.36
2019-03-29T02:36:28.831Z,7.40
2019-03-29T02:38:58.951Z,7.27
2019-03-29T02:41:26.432Z,7.22
2019-03-29T02:43:54.060Z,7.14
2019-03-29T02:46:21.855Z,7.05
2019-03-29T02:48:49.546Z,7.05
2019-03-29T02:51:17.151Z,6.94
2019-03-29T02:53:44.971Z,7.10
2019-03-29T02:56:12.917Z,7.16
2019-03-29T02:58:40.510Z,7.22
2019-03-29T03:01:08.461Z,7.23
2019-03-29T03:03:36.358Z,7.34
2019-03-29T03:06:04.909Z,7.55
2019-03-29T03:08:33.287Z,7.70
2019-03-29T03:11:00.980Z,7.71
2019-03-29T03:13:28.748Z,7.67
2019-03-29T03:15:56.400Z,7.35
2019-03-29T03:18:24.374Z,7.19
2019-03-29T03:20:51.937Z,7.09
2019-03-29T03:23:19.605Z,7.25
2019-03-29T03:25:47.245Z,7.24
2019-03-29T03:28:14.822Z,7.33
2019-03-29T03:30:42.692Z,7.40
2019-03-29T03:33:10.831Z,7.01
2019-03-29T03:35:38.637Z,7.08
2019-03-29T03:38:06.351Z,7.02
2019-03-29T03:40:35.243Z,6.85
2019-03-29T03:43:02.828Z,6.77
2019-03-29T03:45:31.738Z,7.01
2019-03-29T03:47:59.770Z,7.10
2019-03-29T03:50:38.872Z,6.83
2019-03-29T03:53:06.928Z,6.84
2019-03-29T03:55:37.683Z,6.89
2019-03-29T03:58:06.630Z,6.72
2019-03-29T04:00:53.412Z,6.61
2019-03-29T04:03:21.346Z,6.83
2019-03-29T04:05:49.029Z,6.92
2019-03-29T04:08:17.363Z,6.69
2019-03-29T04:10:45.098Z,6.79
2019-03-29T04:13:12.866Z,7.03
2019-03-29T04:15:40.593Z,7.21
2019-03-29T04:18:08.332Z,7.41
2019-03-29T04:20:35.912Z,7.52
2019-03-29T04:23:03.695Z,7.52
2019-03-29T04:25:32.339Z,7.51
2019-03-29T04:28:00.420Z,6.95
2019-03-29T04:30:28.361Z,7.14
2019-03-29T04:32:56.078Z,7.23
2019-03-29T04:35:24.070Z,7.13
2019-03-29T04:37:51.649Z,6.99
2019-03-29T04:40:19.259Z,6.83
2019-03-29T04:42:46.869Z,6.70
2019-03-29T04:45:14.472Z,6.72
2019-03-29T04:47:42.222Z,6.90
2019-03-29T04:50:09.784Z,6.90
2019-03-29T04:52:37.405Z,6.78
2019-03-29T04:55:05.539Z,6.41
2019-03-29T04:57:33.219Z,6.03
2019-03-29T05:00:00.808Z,6.02
2019-03-29T05:02:29.559Z,6.11
2019-03-29T05:04:57.149Z,6.01
2019-03-29T05:07:24.881Z,6.14
2019-03-29T05:09:53.080Z,6.48
2019-03-29T05:12:20.675Z,6.84
2019-03-29T05:14:48.260Z,6.94
2019-03-29T05:17:16.003Z,6.94
2019-03-29T05:19:44.720Z,6.69
2019-03-29T05:22:12.375Z,6.40
2019-03-29T05:24:40.327Z,6.61
2019-03-29T05:27:07.943Z,6.80
2019-03-29T05:29:35.728Z,6.95
2019-03-29T05:32:05.105Z,6.90
2019-03-29T05:34:32.747Z,7.03
2019-03-29T05:37:00.352Z,7.29
2019-03-29T05:39:28.521Z,7.42
2019-03-29T05:41:56.298Z,7.55
2019-03-29T05:44:23.978Z,7.79
2019-03-29T05:46:52.223Z,8.18
2019-03-29T05:49:19.799Z,8.36
2019-03-29T05:51:47.589Z,8.62
2019-03-29T05:54:15.184Z,8.68
2019-03-29T05:56:43.072Z,8.81
2019-03-29T05:59:10.929Z,8.86
2019-03-29T06:01:38.590Z,8.90
2019-03-29T06:04:06.614Z,8.90
2019-03-29T06:06:34.498Z,8.97
2019-03-29T06:09:03.876Z,9.42
2019-03-29T06:11:31.562Z,9.79
2019-03-29T06:14:00.315Z,9.99
2019-03-29T06:16:38.483Z,10.01
2019-03-29T06:18:57.969Z,10.03
2019-03-29T06:21:25.636Z,9.82
2019-03-29T06:23:53.291Z,9.81
2019-03-29T06:26:20.920Z,9.94
2019-03-29T06:28:49.784Z,10.32
2019-03-29T06:31:17.840Z,10.30
2019-03-29T06:33:45.857Z,10.29
2019-03-29T06:36:15.851Z,10.43
2019-03-29T06:38:45.952Z,10.57
2019-03-29T06:41:13.568Z,10.80
2019-03-29T06:43:41.237Z,10.93
2019-03-29T06:46:08.886Z,11.32
2019-03-29T06:48:36.552Z,11.04
2019-03-29T06:51:04.732Z,10.80
2019-03-29T06:53:34.303Z,10.57
2019-03-29T06:56:01.912Z,10.48
2019-03-29T06:58:30.899Z,10.93
2019-03-29T07:00:59.906Z,11.35
2019-03-29T07:03:29.260Z,11.60
2019-03-29T07:05:56.837Z,11.47
2019-03-29T07:08:24.715Z,11.62
2019-03-29T07:10:54.671Z,11.98
2019-03-29T07:13:22.301Z,12.07
2019-03-29T07:15:50.036Z,12.17
2019-03-29T07:18:17.716Z,12.74
2019-03-29T07:20:45.313Z,12.65
2019-03-29T07:23:13.819Z,12.67
2019-03-29T07:25:41.885Z,13.12
2019-03-29T07:28:09.508Z,13.48
2019-03-29T07:30:38.636Z,13.74
2019-03-29T07:33:07.617Z,13.34
2019-03-29T07:35:35.226Z,13.63
2019-03-29T07:38:03.012Z,14.14
2019-03-29T07:40:33.784Z,14.60
2019-03-29T07:43:03.453Z,14.83
2019-03-29T07:45:31.665Z,15.76
2019-03-29T07:47:59.226Z,16.27
2019-03-29T07:50:26.818Z,16.74
2019-03-29T07:52:54.871Z,16.94
2019-03-29T07:55:22.477Z,17.01
2019-03-29T07:57:50.065Z,16.19
2019-03-29T08:00:20.401Z,16.01
2019-03-29T08:02:52.608Z,15.65
2019-03-29T08:05:21.917Z,15.81
2019-03-29T08:07:50.004Z,15.11
2019-03-29T08:10:25.776Z,15.27
2019-03-29T08:12:49.235Z,15.22
2019-03-29T08:15:17.191Z,14.90
2019-03-29T08:17:44.917Z,15.08
2019-03-29T08:20:38.897Z,15.40
2019-03-29T08:22:42.484Z,15.56
2019-03-29T08:25:10.338Z,15.83
2019-03-29T08:27:37.929Z,15.50
2019-03-29T08:30:06.478Z,15.89
2019-03-29T08:32:34.360Z,16.27
2019-03-29T08:35:01.961Z,16.34
2019-03-29T08:37:31.052Z,16.32
2019-03-29T08:39:58.748Z,15.82
2019-03-29T08:42:26.315Z,15.46
2019-03-29T08:44:54.291Z,15.37
2019-03-29T08:47:22.105Z,15.49
2019-03-29T08:49:49.798Z,16.17
2019-03-29T08:52:17.374Z,15.89
2019-03-29T08:54:45.154Z,16.19
2019-03-29T08:57:14.529Z,16.12
2019-03-29T08:59:43.162Z,16.35
2019-03-29T09:02:10.950Z,16.61
2019-03-29T09:04:38.522Z,17.06
2019-03-29T09:07:06.269Z,17.21
2019-03-29T09:09:34.130Z,16.90
2019-03-29T09:12:13.686Z,17.32
2019-03-29T09:14:33.370Z,17.34
2019-03-29T09:17:01.099Z,16.77
2019-03-29T09:19:29.813Z,17.00
2019-03-29T09:21:57.411Z,17.19
2019-03-29T09:24:25.063Z,17.50
2019-03-29T09:26:52.673Z,17.61
2019-03-29T09:29:22.984Z,17.19
2019-03-29T09:31:50.646Z,17.61
2019-03-29T09:34:18.233Z,18.33
2019-03-29T09:36:46.235Z,18.09
2019-03-29T09:39:14.057Z,17.71
2019-03-29T09:41:42.031Z,17.92
2019-03-29T09:44:10.340Z,17.71
2019-03-29T09:46:40.454Z,17.81
2019-03-29T09:49:08.610Z,18.73
2019-03-29T09:51:38.050Z,18.65
2019-03-29T09:54:05.855Z,18.69
2019-03-29T09:56:39.179Z,19.85
2019-03-29T09:59:03.189Z,20.86
2019-03-29T10:01:32.123Z,20.67
2019-03-29T10:03:59.904Z,21.05
2019-03-29T10:06:27.893Z,20.44
2019-03-29T10:08:55.949Z,19.53
2019-03-29T10:11:23.866Z,19.42
2019-03-29T10:13:51.567Z,19.34
2019-03-29T10:16:19.288Z,18.56
2019-03-29T10:18:47.250Z,18.64
2019-03-29T10:21:17.154Z,18.68
2019-03-29T10:23:44.551Z,18.40
2019-03-29T10:26:12.115Z,17.75
2019-03-29T10:28:39.740Z,17.27
2019-03-29T10:31:07.452Z,17.77
2019-03-29T10:33:35.612Z,17.70
2019-03-29T10:36:03.415Z,18.34
2019-03-29T10:38:31.087Z,18.99
2019-03-29T10:40:58.677Z,18.74
2019-03-29T10:43:26.273Z,18.98
2019-03-29T10:45:55.093Z,19.21
2019-03-29T10:48:23.043Z,19.68
2019-03-29T10:50:50.735Z,20.19
2019-03-29T10:53:19.604Z,20.90
2019-03-29T10:55:48.511Z,21.60
2019-03-29T10:58:17.923Z,24.26
2019-03-29T11:00:46.020Z,27.31
2019-03-29T11:03:14.306Z,27.73
2019-03-29T11:05:42.166Z,30.01
2019-03-29T11:08:12.147Z,29.95
2019-03-29T11:10:39.590Z,25.44
2019-03-29T11:13:13.159Z,25.03
2019-03-29T11:15:36.907Z,23.72
2019-03-29T11:18:05.893Z,25.43
2019-03-29T11:20:33.458Z,25.20
2019-03-29T11:23:01.116Z,24.73
2019-03-29T11:25:30.593Z,24.44
2019-03-29T11:27:58.226Z,24.00
2019-03-29T11:30:25.950Z,24.61
2019-03-29T11:32:53.857Z,24.57
2019-03-29T11:35:21.492Z,25.74
2019-03-29T11:37:49.229Z,25.14
2019-03-29T11:40:17.321Z,25.68
2019-03-29T11:42:45.106Z,26.03
2019-03-29T11:45:13.078Z,24.80
2019-03-29T11:47:41.078Z,23.83
2019-03-29T11:50:09.003Z,26.12
2019-03-29T11:52:36.760Z,26.80
2019-03-29T11:55:05.166Z,23.42
2019-03-29T11:57:34.104Z,25.13
2019-03-29T12:00:01.983Z,26.14
2019-03-29T12:02:31.518Z,27.34
2019-03-29T12:04:59.666Z,26.48
2019-03-29T12:07:27.310Z,27.36
2019-03-29T12:09:55.264Z,28.52
2019-03-29T12:12:23.004Z,28.48
2019-03-29T12:14:50.633Z,29.82
2019-03-29T12:17:18.408Z,28.53
2019-03-29T12:19:48.242Z,29.19
2019-03-29T12:22:17.402Z,29.21
2019-03-29T12:24:45.018Z,29.46
2019-03-29T12:27:13.115Z,28.66
2019-03-29T12:29:42.079Z,28.95
2019-03-29T12:32:09.781Z,29.96
2019-03-29T12:34:37.827Z,30.27
2019-03-29T12:37:05.633Z,29.68
2019-03-29T12:39:33.317Z,28.80
2019-03-29T12:42:02.141Z,26.11
2019-03-29T12:44:30.877Z,26.35
2019-03-29T12:46:58.459Z,26.75
2019-03-29T12:49:26.527Z,30.22
2019-03-29T12:51:54.784Z,31.28
2019-03-29T12:54:24.141Z,30.66
2019-03-29T12:56:55.398Z,28.88
2019-03-29T12:59:28.898Z,27.88
2019-03-29T13:01:57.512Z,27.00
2019-03-29T13:04:25.291Z,29.14
2019-03-29T13:06:53.324Z,29.67
2019-03-29T13:09:21.159Z,29.45
2019-03-29T13:11:48.879Z,29.26
2019-03-29T13:14:16.544Z,28.98
2019-03-29T13:16:44.182Z,31.43
2019-03-29T13:19:12.231Z,29.91
2019-03-29T13:21:39.882Z,31.03
2019-03-29T13:24:07.812Z,28.54
2019-03-29T13:26:35.449Z,29.15
2019-03-29T13:29:03.361Z,27.20
2019-03-29T13:31:31.100Z,27.40
2019-03-29T13:33:58.911Z,28.33
2019-03-29T13:36:26.954Z,30.94
2019-03-29T13:38:56.528Z,33.17
2019-03-29T13:41:24.249Z,31.87
2019-03-29T13:43:51.865Z,31.25
2019-03-29T13:46:22.022Z,32.56
2019-03-29T13:48:49.719Z,32.67
2019-03-29T13:51:17.334Z,30.36
2019-03-29T13:53:45.202Z,30.59
2019-03-29T13:56:12.953Z,31.11
2019-03-29T13:58:40.564Z,29.68
2019-03-29T14:01:08.726Z,29.89
2019-03-29T14:03:36.359Z,30.16
2019-03-29T14:06:04.049Z,29.48
2019-03-29T14:08:31.894Z,29.25
2019-03-29T14:11:00.037Z,28.27
2019-03-29T14:13:27.884Z,29.16
2019-03-29T14:15:55.981Z,30.86
2019-03-29T14:18:23.907Z,28.29
2019-03-29T14:20:51.758Z,27.44
2019-03-29T14:23:19.788Z,27.99
2019-03-29T14:25:47.892Z,31.49
2019-03-29T14:28:15.616Z,32.46
2019-03-29T14:30:43.685Z,33.39
2019-03-29T14:33:11.339Z,32.76
2019-03-29T14:35:38.958Z,33.17
2019-03-29T14:38:06.790Z,33.34
2019-03-29T14:40:34.499Z,32.58
2019-03-29T14:43:03.597Z,33.51
2019-03-29T14:45:31.337Z,35.08
2019-03-29T14:47:58.955Z,34.71
2019-03-29T14:50:27.993Z,36.38
2019-03-29T14:52:55.626Z,35.56
2019-03-29T14:55:23.790Z,33.48
2019-03-29T14:57:52.494Z,34.01
2019-03-29T15:00:36.642Z,35.06
2019-03-29T15:03:04.396Z,33.24
2019-03-29T15:05:35.295Z,32.75
2019-03-29T15:08:03.203Z,31.72
2019-03-29T15:10:31.101Z,31.85
2019-03-29T15:12:58.948Z,33.12
2019-03-29T15:15:26.819Z,32.10
2019-03-29T15:17:54.916Z,32.23
2019-03-29T15:20:23.622Z,33.33
2019-03-29T15:22:51.701Z,32.75
2019-03-29T15:25:19.489Z,31.83
2019-03-29T15:27:47.073Z,31.13
2019-03-29T15:30:14.802Z,31.37
2019-03-29T15:32:42.405Z,31.71
2019-03-29T15:35:10.265Z,30.46
2019-03-29T15:37:37.882Z,29.91
2019-03-29T15:40:06.975Z,30.52
2019-03-29T15:42:34.590Z,32.59
2019-03-29T15:45:19.251Z,31.82
2019-03-29T15:47:35.439Z,32.10
2019-03-29T15:50:03.977Z,31.26
2019-03-29T15:52:32.014Z,31.73
2019-03-29T15:54:59.691Z,32.07
2019-03-29T15:57:27.836Z,31.19
2019-03-29T15:59:55.525Z,33.28
2019-03-29T16:02:24.947Z,31.45
2019-03-29T16:04:54.761Z,30.47
2019-03-29T16:07:22.492Z,32.17
2019-03-29T16:09:50.711Z,32.19
2019-03-29T16:12:18.420Z,32.78
2019-03-29T16:14:46.230Z,31.87
2019-03-29T16:17:14.329Z,29.92
2019-03-29T16:19:46.334Z,30.80
2019-03-29T16:22:14.021Z,30.99
2019-03-29T16:24:41.639Z,29.93
2019-03-29T16:27:09.386Z,30.00
2019-03-29T16:29:38.055Z,29.83
2019-03-29T16:32:05.634Z,27.99
2019-03-29T16:34:33.297Z,27.14
2019-03-29T16:37:00.964Z,27.11
2019-03-29T16:39:28.780Z,26.40
2019-03-29T16:41:56.510Z,25.72
2019-03-29T16:44:24.777Z,24.87
2019-03-29T16:46:52.404Z,24.76
2019-03-29T16:49:35.057Z,25.43
2019-03-29T16:52:02.782Z,25.44
2019-03-29T16:54:30.538Z,24.79
2019-03-29T16:56:59.120Z,23.79
2019-03-29T16:59:27.152Z,23.44
2019-03-29T17:01:54.906Z,22.94
2019-03-29T17:04:22.559Z,22.41
2019-03-29T17:06:50.350Z,22.59
2019-03-29T17:09:18.184Z,23.01
2019-03-29T17:11:46.107Z,22.81
2019-03-29T17:14:14.189Z,22.42
2019-03-29T17:16:41.923Z,21.64
2019-03-29T17:19:10.340Z,21.19
2019-03-29T17:21:37.917Z,20.83
2019-03-29T17:24:05.537Z,20.61
2019-03-29T17:26:33.316Z,20.35
2019-03-29T17:29:01.482Z,20.03
2019-03-29T17:31:29.157Z,19.59
2019-03-29T17:33:56.922Z,19.19
2019-03-29T17:36:25.625Z,18.94
2019-03-29T17:38:54.582Z,18.78
2019-03-29T17:41:22.651Z,18.21
2019-03-29T17:43:54.061Z,17.69
2019-03-29T17:46:23.757Z,17.41
2019-03-29T17:48:53.855Z,17.28
2019-03-29T17:51:21.630Z,16.98
2019-03-29T17:53:49.398Z,16.62
2019-03-29T17:56:17.846Z,16.23
2019-03-29T17:58:45.416Z,16.06
2019-03-29T18:01:13.066Z,15.85
2019-03-29T18:03:41.385Z,15.69
2019-03-29T18:06:08.935Z,15.67
2019-03-29T18:08:36.683Z,15.61
2019-03-29T18:11:04.339Z,15.56
2019-03-29T18:13:32.283Z,15.46
2019-03-29T18:15:59.861Z,15.27
2019-03-29T18:18:27.552Z,15.12
2019-03-29T18:20:55.518Z,15.05
2019-03-29T18:23:25.025Z,14.93
2019-03-29T18:25:53.440Z,14.80
2019-03-29T18:28:21.083Z,14.66
2019-03-29T18:30:49.073Z,14.59
2019-03-29T18:33:16.781Z,14.52
2019-03-29T18:35:44.695Z,14.48
2019-03-29T18:38:12.558Z,14.42
2019-03-29T18:40:40.278Z,14.30
2019-03-29T18:43:09.089Z,14.28
2019-03-29T18:45:36.851Z,14.13
2019-03-29T18:48:05.112Z,14.07
2019-03-29T18:50:32.698Z,13.97
2019-03-29T18:53:00.353Z,13.90
2019-03-29T18:55:29.151Z,13.89
2019-03-29T18:57:56.723Z,13.95
2019-03-29T19:00:31.872Z,13.92
2019-03-29T19:02:59.453Z,13.79
2019-03-29T19:05:27.959Z,13.60
2019-03-29T19:07:55.829Z,13.44
2019-03-29T19:10:23.764Z,13.28
2019-03-29T19:12:51.404Z,13.34
2019-03-29T19:15:19.531Z,13.15
2019-03-29T19:17:49.949Z,13.15
2019-03-29T19:20:27.496Z,13.16
2019-03-29T19:22:47.711Z,12.92
2019-03-29T19:25:15.305Z,12.74
2019-03-29T19:27:44.348Z,12.65
2019-03-29T19:30:12.452Z,12.61
2019-03-29T19:32:40.081Z,12.57
2019-03-29T19:35:08.632Z,12.63
2019-03-29T19:37:36.375Z,12.61
2019-03-29T19:40:04.555Z,12.43
2019-03-29T19:42:32.444Z,12.32
2019-03-29T19:45:00.372Z,12.39
2019-03-29T19:47:28.292Z,12.26
2019-03-29T19:49:57.082Z,12.14
2019-03-29T19:52:25.171Z,12.03
2019-03-29T19:54:53.016Z,12.02
2019-03-29T19:57:20.654Z,12.11
2019-03-29T19:59:48.870Z,12.11
2019-03-29T20:02:16.731Z,12.09
2019-03-29T20:04:44.429Z,11.99
2019-03-29T20:07:12.112Z,11.68
2019-03-29T20:09:42.083Z,11.51
2019-03-29T20:12:09.507Z,11.52
2019-03-29T20:14:37.882Z,11.46
2019-03-29T20:17:05.492Z,11.46
2019-03-29T20:19:33.322Z,11.46
2019-03-29T20:22:01.529Z,11.32
2019-03-29T20:24:29.329Z,11.51
2019-03-29T20:26:56.951Z,11.52
2019-03-29T20:29:24.698Z,11.43
2019-03-29T20:31:54.171Z,11.36
2019-03-29T20:34:21.769Z,11.38
2019-03-29T20:36:49.843Z,11.28
2019-03-29T20:39:17.509Z,11.36
2019-03-29T20:41:45.147Z,11.32
2019-03-29T20:44:12.938Z,11.36
2019-03-29T20:46:40.703Z,11.36
2019-03-29T20:49:08.317Z,11.19
2019-03-29T20:51:38.874Z,11.24
2019-03-29T20:54:07.649Z,11.05
2019-03-29T20:56:35.407Z,10.88
2019-03-29T20:59:03.170Z,10.80
2019-03-29T21:01:30.985Z,10.65
2019-03-29T21:03:58.872Z,10.57
2019-03-29T21:06:26.734Z,10.62
2019-03-29T21:08:54.811Z,10.53
2019-03-29T21:11:22.435Z,10.48
2019-03-29T21:13:50.644Z,10.34
2019-03-29T21:16:18.596Z,10.37
2019-03-29T21:19:00.035Z,10.38
2019-03-29T21:21:28.110Z,10.31
2019-03-29T21:23:55.949Z,10.20
2019-03-29T21:26:23.812Z,10.16
2019-03-29T21:28:52.985Z,10.16
2019-03-29T21:31:20.882Z,10.10
2019-03-29T21:33:48.569Z,10.06
2019-03-29T21:36:18.201Z,10.09
2019-03-29T21:38:46.195Z,10.09
2019-03-29T21:41:14.100Z,10.08
2019-03-29T21:43:42.264Z,10.03
2019-03-29T21:46:09.903Z,10.05
2019-03-29T21:48:37.763Z,10.22
2019-03-29T21:51:05.801Z,10.18
2019-03-29T21:53:33.442Z,10.05
2019-03-29T21:56:01.463Z,10.01
2019-03-29T21:58:29.552Z,10.02
2019-03-29T22:00:57.265Z,9.98
2019-03-29T22:03:25.027Z,10.06
2019-03-29T22:05:53.742Z,9.92
2019-03-29T22:08:21.582Z,9.87
2019-03-29T22:10:49.228Z,9.96
2019-03-29T22:13:17.433Z,9.81
2019-03-29T22:15:45.509Z,9.90
2019-03-29T22:18:13.134Z,9.89
2019-03-29T22:20:41.144Z,9.82
2019-03-29T22:23:08.778Z,9.90
2019-03-29T22:25:36.421Z,9.94
2019-03-29T22:28:04.670Z,9.78
2019-03-29T22:30:32.278Z,9.76
2019-03-29T22:33:03.729Z,9.65
2019-03-29T22:35:30.300Z,9.67
2019-03-29T22:37:58.011Z,9.66
2019-03-29T22:40:25.796Z,9.54
2019-03-29T22:42:54.631Z,9.37
2019-03-29T22:45:22.244Z,9.44
2019-03-29T22:47:49.927Z,9.44
2019-03-29T22:50:20.233Z,9.44
2019-03-29T22:52:48.093Z,9.53
2019-03-29T22:55:16.001Z,9.49
2019-03-29T22:57:43.802Z,9.44
2019-03-29T23:00:18.737Z,9.50
2019-03-29T23:02:48.662Z,9.45
2019-03-29T23:05:16.268Z,9.40
2019-03-29T23:07:44.032Z,9.49
2019-03-29T23:10:12.448Z,9.48
2019-03-29T23:12:40.226Z,9.50
2019-03-29T23:15:07.887Z,9.45
2019-03-29T23:17:35.580Z,9.49
2019-03-29T23:20:03.262Z,9.48
2019-03-29T23:22:31.036Z,9.32
2019-03-29T23:24:58.796Z,9.11
2019-03-29T23:27:28.001Z,9.04
2019-03-29T23:29:55.830Z,9.00
2019-03-29T23:32:23.505Z,8.99
2019-03-29T23:34:51.774Z,8.97
2019-03-29T23:37:19.572Z,9.08
2019-03-29T23:39:47.491Z,9.07
2019-03-29T23:42:17.288Z,8.95
2019-03-29T23:44:45.217Z,8.70
2019-03-29T23:47:13.295Z,8.51
2019-03-29T23:49:42.432Z,8.66
2019-03-29T23:52:11.300Z,8.62
2019-03-29T23:54:38.994Z,8.49
2019-03-29T23:57:07.720Z,8.46
2019-03-29T23:59:35.473Z,8.64
